createdAt,value
2022-11-25T00:00:00.391Z,1.4
2022-11-25T00:05:00.388Z,1.4
2022-11-25T00:10:00.399Z,1.5
2022-11-25T00:15:00.402Z,1.6
2022-11-25T00:20:00.406Z,1.6
2022-11-25T00:25:00.413Z,1.6
2022-11-25T00:30:00.434Z,1.8
2022-11-25T00:35:00.420Z,1.8
2022-11-25T00:40:00.454Z,1.8
2022-11-25T00:45:00.438Z,1.8
2022-11-25T00:50:00.458Z,1.8
2022-11-25T00:55:00.453Z,1.7
2022-11-25T01:00:00.405Z,1.8
2022-11-25T01:05:00.249Z,1.8
2022-11-25T01:10:00.137Z,1.9
2022-11-25T01:15:00.094Z,1.9
2022-11-25T01:20:00.112Z,1.9
2022-11-25T01:25:00.113Z,1.9
2022-11-25T01:30:00.111Z,2
2022-11-25T01:35:00.138Z,2
2022-11-25T01:40:00.157Z,2.1
2022-11-25T01:45:00.129Z,2.1
2022-11-25T01:50:00.162Z,2.1
2022-11-25T01:55:00.147Z,2.1
2022-11-25T02:00:00.139Z,2.1
2022-11-25T02:05:00.155Z,2.1
2022-11-25T02:10:00.151Z,2.1
2022-11-25T02:15:00.166Z,2
2022-11-25T02:20:00.185Z,1.9
2022-11-25T02:25:00.178Z,1.9
2022-11-25T02:30:00.191Z,1.9
2022-11-25T02:35:00.191Z,1.9
2022-11-25T02:40:00.190Z,1.8
2022-11-25T02:45:00.192Z,1.8
2022-11-25T02:50:00.208Z,1.9
2022-11-25T02:55:00.198Z,1.9
2022-11-25T03:00:00.227Z,1.9
2022-11-25T03:05:01.356Z,2
2022-11-25T03:10:01.358Z,2.1
2022-11-25T03:15:01.400Z,2.1
2022-11-25T03:20:01.362Z,2
2022-11-25T03:25:01.372Z,2
2022-11-25T03:30:01.385Z,2.1
2022-11-25T03:35:01.376Z,2.1
2022-11-25T03:40:01.384Z,2.2
2022-11-25T03:45:01.392Z,2.2
2022-11-25T03:50:01.402Z,2.3
2022-11-25T03:55:01.394Z,2.4
2022-11-25T04:00:01.403Z,2.4
2022-11-25T04:05:01.412Z,2.4
2022-11-25T04:10:01.421Z,2.4
2022-11-25T04:15:01.417Z,2.5
2022-11-25T04:20:01.498Z,2.5
2022-11-25T04:25:01.435Z,2.6
2022-11-25T04:30:01.435Z,2.6
2022-11-25T04:35:01.436Z,2.7
2022-11-25T04:40:01.448Z,2.8
2022-11-25T04:45:22.107Z,2.8
2022-11-25T04:50:01.502Z,2.8
2022-11-25T04:55:01.519Z,2.9
2022-11-25T05:00:01.589Z,2.9
2022-11-25T05:05:01.877Z,3
2022-11-25T05:10:01.707Z,3.1
2022-11-25T05:15:01.859Z,3.2
2022-11-25T05:20:01.645Z,3.2
2022-11-25T05:25:01.789Z,3.2
2022-11-25T05:30:01.697Z,3.2
2022-11-25T05:35:01.923Z,3.2
2022-11-25T05:40:01.720Z,3.2
2022-11-25T05:45:01.753Z,3.2
2022-11-25T05:50:01.667Z,3.3
2022-11-25T05:55:01.651Z,3.4
2022-11-25T06:00:01.546Z,3.4
2022-11-25T06:05:01.678Z,3.4
2022-11-25T06:10:03.454Z,3.4
2022-11-25T06:15:01.679Z,3.3
2022-11-25T06:20:01.723Z,3.3
2022-11-25T06:25:03.818Z,3.2
2022-11-25T06:30:01.709Z,3.2
2022-11-25T06:35:01.713Z,3.2
2022-11-25T06:40:01.566Z,3.2
2022-11-25T06:45:01.568Z,3.1
2022-11-25T06:50:01.570Z,3.1
2022-11-25T06:55:01.577Z,3.1
2022-11-25T07:00:01.593Z,3.1
2022-11-25T07:05:00.150Z,3.1
2022-11-25T07:10:00.170Z,3.1
2022-11-25T07:15:00.169Z,3.2
2022-11-25T07:20:00.181Z,3.3
2022-11-25T07:25:00.184Z,3.4
2022-11-25T07:30:41.509Z,3.5
2022-11-25T07:35:00.195Z,3.6
2022-11-25T07:40:00.196Z,3.8
2022-11-25T07:45:00.201Z,3.9
2022-11-25T07:50:00.200Z,4.1
2022-11-25T07:55:00.205Z,4.2
2022-11-25T08:00:00.714Z,4.3
2022-11-25T08:05:00.803Z,4.6
2022-11-25T08:10:00.218Z,4.8
2022-11-25T08:15:00.226Z,4.9
2022-11-25T08:20:00.232Z,5.1
2022-11-25T08:25:00.237Z,5.2
2022-11-25T08:30:00.240Z,5.3
2022-11-25T08:35:00.243Z,5.4
2022-11-25T08:40:00.911Z,5.6
2022-11-25T08:45:00.268Z,5.7
2022-11-25T08:50:00.262Z,5.8
2022-11-25T08:55:00.288Z,5.9
2022-11-25T09:00:00.270Z,6
2022-11-25T09:05:00.291Z,6.1
2022-11-25T09:10:00.285Z,6.1
2022-11-25T09:15:00.886Z,6.3
2022-11-25T09:20:00.305Z,6.6
2022-11-25T09:25:00.353Z,6.9
2022-11-25T09:30:00.457Z,7
2022-11-25T09:35:00.440Z,7.1
2022-11-25T09:40:00.418Z,7.2
2022-11-25T09:45:00.451Z,7.2
2022-11-25T09:50:00.901Z,7.2
2022-11-25T09:55:01.226Z,7.2
2022-11-25T10:00:00.837Z,7.4
2022-11-25T10:05:00.328Z,7.4
2022-11-25T10:10:00.343Z,7.4
2022-11-25T10:15:00.343Z,7.4
2022-11-25T10:20:00.361Z,7.4
2022-11-25T10:25:00.368Z,7.7
2022-11-25T10:30:00.360Z,7.9
2022-11-25T10:35:00.362Z,8.2
2022-11-25T10:40:00.375Z,8.2
2022-11-25T10:45:00.982Z,8.2
2022-11-25T10:50:00.972Z,8.2
2022-11-25T10:55:00.391Z,8.2
2022-11-25T11:00:00.392Z,8.3
2022-11-25T11:05:00.424Z,8.3
2022-11-25T11:10:00.402Z,8.3
2022-11-25T11:15:00.419Z,8.1
2022-11-25T11:20:00.408Z,8.1
2022-11-25T11:25:00.444Z,8.1
2022-11-25T11:30:00.416Z,8.1
2022-11-25T11:35:00.425Z,8.2
2022-11-25T11:40:00.443Z,8.6
2022-11-25T11:45:00.428Z,8.7
2022-11-25T11:50:00.439Z,8.7
2022-11-25T11:55:00.444Z,8.8
2022-11-25T12:00:00.477Z,8.6
2022-11-25T12:05:00.462Z,8.6
2022-11-25T12:10:00.459Z,8.5
2022-11-25T12:15:00.461Z,8.4
2022-11-25T12:20:00.469Z,8.6
2022-11-25T12:25:00.471Z,8.7
2022-11-25T12:30:00.472Z,8.9
2022-11-25T12:35:00.491Z,8.9
2022-11-25T12:40:00.484Z,8.9
2022-11-25T12:45:00.491Z,8.8
2022-11-25T12:50:00.495Z,8.8
2022-11-25T12:55:00.501Z,8.9
2022-11-25T13:00:25.064Z,8.9
2022-11-25T13:05:13.092Z,8.8
2022-11-25T13:10:00.200Z,8.6
2022-11-25T13:15:00.783Z,8.6
2022-11-25T13:20:00.097Z,8.6
2022-11-25T13:25:00.111Z,8.5
2022-11-25T13:30:00.114Z,8.5
2022-11-25T13:35:00.116Z,8.6
2022-11-25T13:40:00.158Z,8.5
2022-11-25T13:45:00.129Z,8.4
2022-11-25T13:50:00.128Z,8.5
2022-11-25T13:55:00.147Z,8.5
2022-11-25T14:00:00.160Z,8.5
2022-11-25T14:05:00.168Z,8.5
2022-11-25T14:10:00.163Z,8.5
2022-11-25T14:15:00.157Z,8.6
2022-11-25T14:20:00.592Z,8.6
2022-11-25T14:25:00.168Z,8.6
2022-11-25T14:30:00.177Z,8.5
2022-11-25T14:35:00.176Z,8.5
2022-11-25T14:40:00.177Z,8.6
2022-11-25T14:45:00.199Z,8.7
2022-11-25T14:50:26.682Z,8.5
2022-11-25T14:55:00.368Z,8.4
2022-11-25T15:00:00.924Z,8.4
2022-11-25T15:05:00.361Z,8.4
2022-11-25T15:10:00.393Z,8.4
2022-11-25T15:15:00.934Z,8.4
2022-11-25T15:20:00.388Z,8.3
2022-11-25T15:25:00.373Z,8.1
2022-11-25T15:30:00.401Z,7.9
2022-11-25T15:35:00.465Z,7.6
2022-11-25T15:40:00.491Z,7.2
2022-11-25T15:45:05.281Z,6.8
2022-11-25T15:50:00.557Z,6.6
2022-11-25T15:55:00.445Z,6.3
2022-11-25T16:00:00.530Z,6.1
2022-11-25T16:05:03.421Z,5.8
2022-11-25T16:10:00.473Z,5.4
2022-11-25T16:15:00.478Z,5.1
2022-11-25T16:20:00.541Z,4.9
2022-11-25T16:25:02.633Z,4.7
2022-11-25T16:30:00.462Z,4.5
2022-11-25T16:35:00.458Z,4.3
2022-11-25T16:40:00.471Z,4.2
2022-11-25T16:45:00.513Z,4
2022-11-25T16:50:00.482Z,3.9
2022-11-25T16:55:00.478Z,3.8
2022-11-25T17:00:00.489Z,3.8
2022-11-25T17:05:00.496Z,3.8
2022-11-25T17:10:00.506Z,3.6
2022-11-25T17:15:00.826Z,3.7
2022-11-25T17:20:00.639Z,3.6
2022-11-25T17:25:00.672Z,3.6
2022-11-25T17:30:00.562Z,3.7
2022-11-25T17:35:00.358Z,3.6
2022-11-25T17:40:00.362Z,3.8
2022-11-25T17:45:00.381Z,3.8
2022-11-25T17:50:00.387Z,3.8
2022-11-25T17:55:00.389Z,3.8
2022-11-25T18:00:00.409Z,3.8
2022-11-25T18:05:00.392Z,3.9
2022-11-25T18:10:00.395Z,3.9
2022-11-25T18:15:00.413Z,3.9
2022-11-25T18:20:00.401Z,3.9
2022-11-25T18:25:03.131Z,4
2022-11-25T18:30:00.416Z,4
2022-11-25T18:35:00.436Z,4.1
2022-11-25T18:40:00.422Z,4.1
2022-11-25T18:45:00.440Z,4.1
2022-11-25T18:50:00.439Z,4
2022-11-25T18:55:00.437Z,4
2022-11-25T19:00:24.866Z,4.1
2022-11-25T19:05:00.303Z,4.1
2022-11-25T19:10:00.166Z,4.1
2022-11-25T19:15:00.107Z,4.1
2022-11-25T19:20:00.125Z,4.1
2022-11-25T19:25:00.109Z,4.1
2022-11-25T19:30:00.123Z,4
2022-11-25T19:35:00.141Z,4
2022-11-25T19:40:00.190Z,4.1
2022-11-25T19:45:00.151Z,4.2
2022-11-25T19:50:00.140Z,4.2
2022-11-25T19:55:00.145Z,4.3
2022-11-25T20:00:00.149Z,4.3
2022-11-25T20:05:00.155Z,4.2
2022-11-25T20:10:00.155Z,4.2
2022-11-25T20:15:00.163Z,4.1
2022-11-25T20:20:00.181Z,3.9
2022-11-25T20:25:00.176Z,3.8
2022-11-25T20:30:00.199Z,3.6
2022-11-25T20:35:00.187Z,3.6
2022-11-25T20:40:00.200Z,3.5
2022-11-25T20:45:00.192Z,3.6
2022-11-25T20:50:00.221Z,3.6
2022-11-25T20:55:00.219Z,3.4
2022-11-25T21:00:00.274Z,3.3
2022-11-25T21:05:00.209Z,3.2
2022-11-25T21:10:00.214Z,3.1
2022-11-25T21:15:00.226Z,2.9
2022-11-25T21:20:00.257Z,2.8
2022-11-25T21:25:00.243Z,2.7
2022-11-25T21:30:00.260Z,2.6
2022-11-25T21:35:00.247Z,2.6
2022-11-25T21:40:00.250Z,2.5
2022-11-25T21:45:00.375Z,2.4
2022-11-25T21:50:00.273Z,2.4
2022-11-25T21:55:00.317Z,2.3
2022-11-25T22:00:00.369Z,2.2
2022-11-25T22:05:00.389Z,2.2
2022-11-25T22:10:00.356Z,2.1
2022-11-25T22:15:00.403Z,2.1
2022-11-25T22:20:00.351Z,2
2022-11-25T22:25:00.297Z,2
2022-11-25T22:30:00.309Z,2
2022-11-25T22:35:00.319Z,2
2022-11-25T22:40:00.309Z,2
2022-11-25T22:45:00.310Z,2
2022-11-25T22:50:00.614Z,2.1
2022-11-25T22:55:00.562Z,2.1
2022-11-25T23:00:00.682Z,2.2
2022-11-25T23:05:00.538Z,2.1
2022-11-25T23:10:00.699Z,2.2
2022-11-25T23:15:00.509Z,2.2
2022-11-25T23:20:00.551Z,2.1
2022-11-25T23:25:00.352Z,2
2022-11-25T23:30:00.558Z,2
2022-11-25T23:35:00.607Z,2
2022-11-25T23:40:00.558Z,2.1
2022-11-25T23:45:00.555Z,2.2
2022-11-25T23:50:00.376Z,2.2
2022-11-25T23:55:00.393Z,2.3
